createdAt,value
2018-05-24T00:02:10.809Z,0
2018-05-24T00:04:02.230Z,0
2018-05-24T00:04:34.314Z,0
2018-05-24T00:05:06.417Z,0
2018-05-24T00:05:38.508Z,0
2018-05-24T00:06:10.604Z,0
2018-05-24T00:06:42.705Z,0
2018-05-24T00:08:34.228Z,0
2018-05-24T00:09:06.320Z,0
2018-05-24T00:09:38.385Z,0
2018-05-24T00:10:10.476Z,0
2018-05-24T00:12:01.815Z,0
2018-05-24T00:12:33.897Z,0
2018-05-24T00:13:05.998Z,0
2018-05-24T00:13:38.083Z,0
2018-05-24T00:14:10.181Z,0
2018-05-24T00:16:01.819Z,0
2018-05-24T00:16:33.915Z,0
2018-05-24T00:18:25.317Z,0
2018-05-24T00:18:57.413Z,0
2018-05-24T00:19:29.517Z,0
2018-05-24T00:20:01.597Z,0
2018-05-24T00:20:33.698Z,0
2018-05-24T00:21:05.772Z,0
2018-05-24T00:22:57.314Z,0
2018-05-24T00:23:29.402Z,0
2018-05-24T00:24:01.499Z,0
2018-05-24T00:24:33.575Z,0
2018-05-24T00:25:05.653Z,0
2018-05-24T00:25:37.738Z,0
2018-05-24T00:26:09.821Z,0
2018-05-24T00:26:41.918Z,0
2018-05-24T00:27:14.012Z,0
2018-05-24T00:27:46.101Z,0
2018-05-24T00:28:18.183Z,0
2018-05-24T00:28:50.273Z,0
2018-05-24T00:29:22.365Z,0
2018-05-24T00:29:54.463Z,0
2018-05-24T00:30:26.550Z,0
2018-05-24T00:30:58.651Z,0
2018-05-24T00:32:50.080Z,0
2018-05-24T00:33:22.177Z,0
2018-05-24T00:33:54.276Z,0
2018-05-24T00:34:26.380Z,0
2018-05-24T00:34:58.467Z,0
2018-05-24T00:36:50.002Z,0
2018-05-24T00:37:22.105Z,0
2018-05-24T00:37:54.206Z,0
2018-05-24T00:38:26.306Z,0
2018-05-24T00:38:58.403Z,0
2018-05-24T00:40:50.011Z,0
2018-05-24T00:41:22.115Z,0
2018-05-24T00:41:54.202Z,0
2018-05-24T00:42:26.304Z,0
2018-05-24T00:42:58.391Z,0
2018-05-24T00:43:30.484Z,0
2018-05-24T00:44:02.579Z,0
2018-05-24T00:44:34.662Z,0
2018-05-24T00:45:06.758Z,0
2018-05-24T00:45:38.852Z,0
2018-05-24T00:46:10.944Z,0
2018-05-24T00:48:02.579Z,0
2018-05-24T00:48:34.664Z,0
2018-05-24T00:50:26.080Z,0
2018-05-24T00:50:58.183Z,0
2018-05-24T00:51:30.267Z,0
2018-05-24T00:52:02.342Z,0
2018-05-24T00:52:34.420Z,0
2018-05-24T00:54:26.003Z,0
2018-05-24T00:54:58.092Z,0
2018-05-24T00:55:30.174Z,0
2018-05-24T00:56:02.301Z,0
2018-05-24T00:56:34.384Z,0
2018-05-24T00:58:26.020Z,0
2018-05-24T00:58:58.101Z,0
2018-05-24T00:59:30.200Z,0
2018-05-24T01:00:02.274Z,0
2018-05-24T01:00:34.380Z,0
2018-05-24T01:01:06.466Z,0
2018-05-24T01:01:38.557Z,0
2018-05-24T01:02:10.718Z,0
2018-05-24T01:02:42.740Z,0
2018-05-24T01:03:14.799Z,0
2018-05-24T01:03:46.880Z,0
2018-05-24T01:04:18.985Z,0
2018-05-24T01:04:51.043Z,0
2018-05-24T01:05:23.145Z,0
2018-05-24T01:07:14.741Z,0
2018-05-24T01:07:46.809Z,0
2018-05-24T01:08:18.909Z,0
2018-05-24T01:08:51.001Z,0
2018-05-24T01:09:23.102Z,0
2018-05-24T01:09:55.189Z,0
2018-05-24T01:10:27.318Z,0
2018-05-24T01:10:59.362Z,0
2018-05-24T01:11:31.461Z,0
2018-05-24T01:12:03.547Z,0
2018-05-24T01:12:35.638Z,0
2018-05-24T01:14:27.027Z,0
2018-05-24T01:14:59.130Z,0
2018-05-24T01:15:31.236Z,0
2018-05-24T01:17:22.673Z,0
2018-05-24T01:17:54.774Z,0
2018-05-24T01:18:26.841Z,0
2018-05-24T01:20:18.594Z,0
2018-05-24T01:20:50.684Z,0
2018-05-24T01:21:22.842Z,0
2018-05-24T01:21:54.888Z,0
2018-05-24T01:22:26.988Z,0
2018-05-24T01:22:59.089Z,0
2018-05-24T01:23:31.183Z,0
2018-05-24T01:24:03.278Z,0
2018-05-24T01:24:35.361Z,0
2018-05-24T01:25:07.434Z,0
2018-05-24T01:25:39.517Z,0
2018-05-24T01:26:11.603Z,0
2018-05-24T01:26:43.691Z,0
2018-05-24T01:27:15.776Z,0
2018-05-24T01:27:47.868Z,0
2018-05-24T01:28:19.959Z,0
2018-05-24T01:28:52.031Z,0
2018-05-24T01:29:24.112Z,0
2018-05-24T01:29:56.195Z,0
2018-05-24T01:30:28.271Z,0
2018-05-24T01:31:00.356Z,0
2018-05-24T01:31:32.398Z,0
2018-05-24T01:32:04.482Z,0
2018-05-24T01:32:36.595Z,0
2018-05-24T01:33:08.677Z,0
2018-05-24T01:33:40.771Z,0
2018-05-24T01:34:12.856Z,0
2018-05-24T01:34:44.940Z,0
2018-05-24T01:35:17.024Z,0
2018-05-24T01:35:49.125Z,0
2018-05-24T01:36:21.213Z,0
2018-05-24T01:36:53.297Z,0
2018-05-24T01:37:25.395Z,0
2018-05-24T01:37:57.452Z,0
2018-05-24T01:39:49.109Z,0
2018-05-24T01:40:21.204Z,0
2018-05-24T01:40:53.275Z,0
2018-05-24T01:41:25.356Z,0
2018-05-24T01:41:57.465Z,0
2018-05-24T01:42:29.560Z,0
2018-05-24T01:43:01.644Z,0
2018-05-24T01:43:33.753Z,0
2018-05-24T01:44:05.859Z,0
2018-05-24T01:44:37.951Z,0
2018-05-24T01:45:10.039Z,0
2018-05-24T01:45:42.139Z,0
2018-05-24T01:46:14.223Z,0
2018-05-24T01:48:05.519Z,0
2018-05-24T01:48:37.609Z,0
2018-05-24T01:49:09.701Z,0
2018-05-24T01:49:41.765Z,0
2018-05-24T01:51:33.198Z,0
2018-05-24T01:52:05.275Z,0
2018-05-24T01:55:15.873Z,0
2018-05-24T01:55:47.971Z,0
2018-05-24T01:56:20.058Z,0
2018-05-24T01:58:11.791Z,0
2018-05-24T01:58:43.888Z,0
2018-05-24T01:59:15.975Z,0
2018-05-24T01:59:48.070Z,0
2018-05-24T02:00:20.224Z,0
2018-05-24T02:00:52.219Z,0
2018-05-24T02:01:24.318Z,0
2018-05-24T02:01:56.399Z,0
2018-05-24T02:02:28.475Z,0
2018-05-24T02:03:00.577Z,0
2018-05-24T02:04:52.294Z,0
2018-05-24T02:05:24.379Z,0
2018-05-24T02:05:56.485Z,0
2018-05-24T02:06:28.586Z,0
2018-05-24T02:07:00.694Z,0
2018-05-24T02:07:32.787Z,0
2018-05-24T02:08:04.882Z,0
2018-05-24T02:08:36.964Z,0
2018-05-24T02:09:09.047Z,0
2018-05-24T02:09:41.130Z,0
2018-05-24T02:10:13.229Z,0
2018-05-24T02:10:45.325Z,0
2018-05-24T02:11:17.409Z,0
2018-05-24T02:11:49.507Z,0
2018-05-24T02:13:41.296Z,0
2018-05-24T02:14:13.402Z,0
2018-05-24T02:16:05.064Z,0
2018-05-24T02:16:37.159Z,0
2018-05-24T02:17:09.250Z,0
2018-05-24T02:17:41.356Z,0
2018-05-24T02:18:13.440Z,0
2018-05-24T02:18:45.519Z,0
2018-05-24T02:19:17.612Z,0
2018-05-24T02:19:49.707Z,0
2018-05-24T02:20:21.799Z,0
2018-05-24T02:20:53.884Z,0
2018-05-24T02:21:25.952Z,0
2018-05-24T02:23:17.551Z,0
2018-05-24T02:23:49.634Z,0
2018-05-24T02:24:21.706Z,0
2018-05-24T02:24:53.803Z,0
2018-05-24T02:25:25.892Z,0
2018-05-24T02:25:57.972Z,0
2018-05-24T02:26:30.065Z,0
2018-05-24T02:27:02.151Z,0
2018-05-24T02:28:53.625Z,0
2018-05-24T02:29:25.709Z,0
2018-05-24T02:29:57.794Z,0
2018-05-24T02:30:29.888Z,0
2018-05-24T02:31:01.980Z,0
2018-05-24T02:31:34.062Z,0
2018-05-24T02:33:25.568Z,0
2018-05-24T02:33:57.671Z,0
2018-05-24T02:34:29.782Z,0
2018-05-24T02:37:41.145Z,0
2018-05-24T02:39:32.729Z,0
2018-05-24T02:40:04.850Z,0
2018-05-24T02:40:36.927Z,0
2018-05-24T02:41:09.021Z,0
2018-05-24T02:41:41.117Z,0
2018-05-24T02:42:13.203Z,0
2018-05-24T02:42:45.270Z,0
2018-05-24T02:43:17.354Z,0
2018-05-24T02:43:49.454Z,0
2018-05-24T02:44:21.531Z,0
2018-05-24T02:44:53.608Z,0
2018-05-24T02:45:25.709Z,0
2018-05-24T02:47:17.139Z,0
2018-05-24T02:47:49.230Z,0
2018-05-24T02:48:21.316Z,0
2018-05-24T02:48:53.385Z,0
2018-05-24T02:49:25.483Z,0
2018-05-24T02:49:57.575Z,0
2018-05-24T02:50:29.659Z,0
2018-05-24T02:52:21.319Z,0
2018-05-24T02:52:53.415Z,0
2018-05-24T02:54:45.090Z,0
2018-05-24T02:55:17.188Z,0
2018-05-24T02:55:49.278Z,0
2018-05-24T02:56:21.375Z,0
2018-05-24T02:56:53.434Z,0
2018-05-24T02:57:25.534Z,0
2018-05-24T02:57:57.639Z,0
2018-05-24T02:58:29.706Z,0
2018-05-24T02:59:01.785Z,0
2018-05-24T03:00:53.227Z,0
2018-05-24T03:01:25.315Z,0
2018-05-24T03:01:57.397Z,0
2018-05-24T03:03:48.823Z,0
2018-05-24T03:04:20.926Z,0
2018-05-24T03:04:52.996Z,0
2018-05-24T03:05:25.089Z,0
2018-05-24T03:05:57.184Z,0
2018-05-24T03:06:29.271Z,0
2018-05-24T03:07:01.369Z,0
2018-05-24T03:07:33.459Z,0
2018-05-24T03:08:05.553Z,0
2018-05-24T03:08:37.666Z,0
2018-05-24T03:09:09.754Z,0
2018-05-24T03:11:01.244Z,0
2018-05-24T03:11:33.332Z,0
2018-05-24T03:12:05.439Z,0
2018-05-24T03:12:37.539Z,0
2018-05-24T03:13:09.630Z,0
2018-05-24T03:13:41.733Z,0
2018-05-24T03:14:13.830Z,0
2018-05-24T03:16:05.245Z,0
2018-05-24T03:16:37.342Z,0
2018-05-24T03:17:09.445Z,0
2018-05-24T03:17:41.536Z,0
2018-05-24T03:18:13.625Z,0
2018-05-24T03:18:45.738Z,0
2018-05-24T03:19:17.843Z,0
2018-05-24T03:19:49.924Z,0
2018-05-24T03:20:22.020Z,0
2018-05-24T03:22:13.342Z,0
2018-05-24T03:22:45.443Z,0
2018-05-24T03:23:17.530Z,0
2018-05-24T03:23:49.610Z,0
2018-05-24T03:24:21.709Z,0
2018-05-24T03:24:53.810Z,0
2018-05-24T03:25:25.894Z,0
2018-05-24T03:25:57.981Z,0
2018-05-24T03:26:30.097Z,0
2018-05-24T03:27:02.156Z,0
2018-05-24T03:27:34.217Z,0
2018-05-24T03:28:06.292Z,0
2018-05-24T03:28:38.409Z,5
2018-05-24T03:29:10.485Z,5
2018-05-24T03:29:42.587Z,5
2018-05-24T03:30:14.689Z,5
2018-05-24T03:30:46.803Z,5
2018-05-24T03:31:18.884Z,5
2018-05-24T03:31:50.976Z,5
2018-05-24T03:32:23.050Z,5
2018-05-24T03:32:55.142Z,5
2018-05-24T03:34:46.838Z,5
2018-05-24T03:35:18.991Z,5
2018-05-24T03:35:51.010Z,5
2018-05-24T03:36:23.095Z,5
2018-05-24T03:36:55.193Z,5
2018-05-24T03:37:27.280Z,5
2018-05-24T03:37:59.355Z,5
2018-05-24T03:38:31.449Z,5
2018-05-24T03:39:03.517Z,5
2018-05-24T03:39:35.623Z,5
2018-05-24T03:42:46.430Z,5
2018-05-24T03:43:18.529Z,10
2018-05-24T03:43:50.621Z,10
2018-05-24T03:44:22.712Z,10
2018-05-24T03:44:54.811Z,10
2018-05-24T03:45:26.881Z,10
2018-05-24T03:45:58.968Z,10
2018-05-24T03:46:31.058Z,10
2018-05-24T03:47:03.141Z,10
2018-05-24T03:47:35.190Z,10
2018-05-24T03:48:07.258Z,10
2018-05-24T03:48:39.342Z,10
2018-05-24T03:50:30.935Z,10
2018-05-24T03:51:03.051Z,10
2018-05-24T03:51:35.125Z,10
2018-05-24T03:52:07.283Z,10
2018-05-24T03:52:39.305Z,10
2018-05-24T03:53:11.391Z,10
2018-05-24T03:53:43.474Z,10
2018-05-24T03:54:15.571Z,10
2018-05-24T03:54:47.673Z,15
2018-05-24T03:55:19.789Z,15
2018-05-24T03:55:51.890Z,15
2018-05-24T03:57:43.284Z,15
2018-05-24T03:58:15.360Z,15
2018-05-24T03:58:47.443Z,15
2018-05-24T03:59:19.515Z,15
2018-05-24T03:59:51.608Z,15
2018-05-24T04:00:23.687Z,15
2018-05-24T04:00:55.793Z,15
2018-05-24T04:01:27.895Z,15
2018-05-24T04:01:59.977Z,15
2018-05-24T04:02:32.070Z,15
2018-05-24T04:03:04.152Z,15
2018-05-24T04:03:37.139Z,15
2018-05-24T04:04:09.228Z,15
2018-05-24T04:04:41.315Z,15
2018-05-24T04:06:32.858Z,20
2018-05-24T04:07:04.937Z,20
2018-05-24T04:07:37.031Z,20
2018-05-24T04:08:09.130Z,20
2018-05-24T04:08:41.196Z,20
2018-05-24T04:09:13.291Z,20
2018-05-24T04:09:45.373Z,20
2018-05-24T04:10:17.453Z,20
2018-05-24T04:10:49.536Z,20
2018-05-24T04:11:21.620Z,20
2018-05-24T04:11:53.748Z,20
2018-05-24T04:12:25.801Z,20
2018-05-24T04:14:17.092Z,20
2018-05-24T04:14:49.188Z,20
2018-05-24T04:15:21.275Z,20
2018-05-24T04:15:53.360Z,25
2018-05-24T04:16:25.461Z,25
2018-05-24T04:16:57.550Z,25
2018-05-24T04:17:29.647Z,25
2018-05-24T04:18:01.754Z,25
2018-05-24T04:18:33.859Z,25
2018-05-24T04:19:05.965Z,25
2018-05-24T04:20:57.619Z,25
2018-05-24T04:22:49.371Z,25
2018-05-24T04:23:21.511Z,25
2018-05-24T04:23:53.539Z,25
2018-05-24T04:24:25.645Z,25
2018-05-24T04:24:57.728Z,25
2018-05-24T04:26:49.147Z,30
2018-05-24T04:27:21.243Z,30
2018-05-24T04:27:53.347Z,30
2018-05-24T04:29:44.705Z,30
2018-05-24T04:30:16.785Z,30
2018-05-24T04:30:48.861Z,30
2018-05-24T04:31:20.961Z,30
2018-05-24T04:31:53.056Z,30
2018-05-24T04:32:25.171Z,30
2018-05-24T04:32:57.303Z,35
2018-05-24T04:33:29.347Z,35
2018-05-24T04:35:20.710Z,35
2018-05-24T04:35:52.803Z,35
2018-05-24T04:36:24.896Z,35
2018-05-24T04:36:56.997Z,35
2018-05-24T04:38:48.629Z,40
2018-05-24T04:39:20.719Z,40
2018-05-24T04:41:12.376Z,45
2018-05-24T04:43:03.786Z,45
2018-05-24T04:43:35.877Z,50
2018-05-24T04:44:07.953Z,50
2018-05-24T04:45:59.296Z,50
2018-05-24T04:46:31.389Z,50
2018-05-24T04:47:03.473Z,50
2018-05-24T04:47:35.570Z,50
2018-05-24T04:48:07.663Z,50
2018-05-24T04:48:39.767Z,55
2018-05-24T04:49:11.844Z,55
2018-05-24T04:49:43.946Z,55
2018-05-24T04:51:35.373Z,55
2018-05-24T04:52:07.536Z,55
2018-05-24T04:52:39.557Z,55
2018-05-24T04:54:30.973Z,60
2018-05-24T04:55:03.045Z,60
2018-05-24T04:55:35.141Z,60
2018-05-24T04:56:07.222Z,60
2018-05-24T04:57:58.804Z,60
2018-05-24T04:58:30.899Z,60
2018-05-24T04:59:02.995Z,55
2018-05-24T04:59:35.102Z,55
2018-05-24T05:00:07.201Z,60
2018-05-24T05:00:39.283Z,60
2018-05-24T05:02:30.657Z,60
2018-05-24T05:03:02.759Z,60
2018-05-24T05:04:54.292Z,65
2018-05-24T05:05:26.384Z,65
2018-05-24T05:05:58.498Z,70
2018-05-24T05:06:30.694Z,70
2018-05-24T05:07:02.779Z,70
2018-05-24T05:07:34.877Z,70
2018-05-24T05:08:06.977Z,70
2018-05-24T05:08:39.074Z,75
2018-05-24T05:09:11.136Z,75
2018-05-24T05:11:02.741Z,65
2018-05-24T05:11:34.833Z,50
2018-05-24T05:12:06.930Z,50
2018-05-24T05:12:39.013Z,50
2018-05-24T05:13:11.103Z,55
2018-05-24T05:13:43.179Z,60
2018-05-24T05:14:15.285Z,60
2018-05-24T05:14:47.466Z,60
2018-05-24T05:15:19.475Z,65
2018-05-24T05:15:51.546Z,65
2018-05-24T05:16:23.638Z,65
2018-05-24T05:16:55.715Z,65
2018-05-24T05:17:27.804Z,65
2018-05-24T05:17:59.879Z,65
2018-05-24T05:18:31.971Z,65
2018-05-24T05:19:04.066Z,60
2018-05-24T05:19:36.398Z,60
2018-05-24T05:21:27.656Z,65
2018-05-24T05:22:00.586Z,65
2018-05-24T05:22:32.800Z,65
2018-05-24T05:23:04.904Z,65
2018-05-24T05:23:36.988Z,65
2018-05-24T05:24:09.081Z,65
2018-05-24T05:24:41.177Z,65
2018-05-24T05:25:13.342Z,65
2018-05-24T05:27:04.726Z,55
2018-05-24T05:27:39.373Z,60
2018-05-24T05:28:11.516Z,60
2018-05-24T05:30:02.989Z,50
2018-05-24T05:30:35.217Z,50
2018-05-24T05:31:07.263Z,55
2018-05-24T05:31:39.369Z,50
2018-05-24T05:32:11.435Z,50
2018-05-24T05:32:43.528Z,50
2018-05-24T05:33:15.687Z,50
2018-05-24T05:33:47.847Z,55
2018-05-24T05:34:20.108Z,50
2018-05-24T05:36:11.819Z,50
2018-05-24T05:36:43.957Z,50
2018-05-24T05:37:16.162Z,50
2018-05-24T05:37:48.324Z,50
2018-05-24T05:38:20.596Z,55
2018-05-24T05:38:52.626Z,55
2018-05-24T05:39:25.518Z,60
2018-05-24T05:39:57.594Z,70
2018-05-24T05:40:29.687Z,65
2018-05-24T05:41:01.790Z,70
2018-05-24T05:41:33.869Z,80
2018-05-24T05:42:05.967Z,85
2018-05-24T05:42:38.073Z,85
2018-05-24T05:43:10.168Z,90
2018-05-24T05:43:42.262Z,90
2018-05-24T05:44:14.370Z,90
2018-05-24T05:44:46.809Z,90
2018-05-24T05:45:18.834Z,95
2018-05-24T05:45:50.931Z,95
2018-05-24T05:46:23.017Z,100
2018-05-24T05:46:55.118Z,100
2018-05-24T05:47:27.212Z,100
2018-05-24T05:47:59.301Z,105
2018-05-24T05:48:31.388Z,105
2018-05-24T05:49:03.659Z,110
2018-05-24T05:49:35.931Z,110
2018-05-24T05:50:08.240Z,110
2018-05-24T05:52:00.010Z,115
2018-05-24T05:52:32.048Z,115
2018-05-24T05:54:23.505Z,115
2018-05-24T05:54:55.596Z,115
2018-05-24T05:55:27.678Z,115
2018-05-24T05:55:59.730Z,115
2018-05-24T05:56:31.833Z,115
2018-05-24T05:57:03.932Z,115
2018-05-24T05:57:36.042Z,115
2018-05-24T05:58:08.148Z,115
2018-05-24T05:58:40.241Z,115
2018-05-24T05:59:12.341Z,115
2018-05-24T05:59:44.719Z,115
2018-05-24T06:00:16.805Z,110
2018-05-24T06:00:48.896Z,105
2018-05-24T06:01:20.943Z,100
2018-05-24T06:03:12.237Z,100
2018-05-24T06:03:44.308Z,100
2018-05-24T06:04:16.420Z,105
2018-05-24T06:04:48.520Z,110
2018-05-24T06:05:20.630Z,110
2018-05-24T06:05:52.730Z,115
2018-05-24T06:06:24.830Z,120
2018-05-24T06:06:56.923Z,115
2018-05-24T06:07:34.341Z,110
2018-05-24T06:09:26.012Z,110
2018-05-24T06:09:58.566Z,105
2018-05-24T06:10:31.063Z,120
2018-05-24T06:11:03.734Z,110
2018-05-24T06:11:37.547Z,120
2018-05-24T06:12:09.929Z,115
2018-05-24T06:12:42.353Z,105
2018-05-24T06:13:16.281Z,85
2018-05-24T06:13:52.882Z,110
2018-05-24T06:14:25.486Z,115
2018-05-24T06:15:04.896Z,85
2018-05-24T06:16:56.560Z,120
2018-05-24T06:17:29.936Z,125
2018-05-24T06:18:03.857Z,130
2018-05-24T06:19:57.238Z,135
2018-05-24T06:21:49.937Z,125
2018-05-24T06:22:23.758Z,140
2018-05-24T06:22:56.582Z,130
2018-05-24T06:23:29.297Z,145
2018-05-24T06:24:01.953Z,145
2018-05-24T06:25:54.104Z,150
2018-05-24T06:26:29.512Z,120
2018-05-24T06:27:03.501Z,145
2018-05-24T06:27:35.862Z,145
2018-05-24T06:28:08.779Z,135
2018-05-24T06:30:00.687Z,145
2018-05-24T06:30:34.019Z,145
2018-05-24T06:31:06.540Z,140
2018-05-24T06:31:39.015Z,140
2018-05-24T06:32:12.903Z,140
2018-05-24T06:32:46.693Z,140
2018-05-24T06:33:20.684Z,140
2018-05-24T06:33:53.005Z,140
2018-05-24T06:34:25.369Z,140
2018-05-24T06:34:57.460Z,140
2018-05-24T06:35:29.608Z,140
2018-05-24T06:36:01.724Z,145
2018-05-24T06:36:33.829Z,145
2018-05-24T06:38:25.441Z,145
2018-05-24T06:38:57.527Z,140
2018-05-24T06:39:29.769Z,145
2018-05-24T06:40:01.915Z,145
2018-05-24T06:40:34.081Z,145
2018-05-24T06:41:06.101Z,145
2018-05-24T06:42:58.073Z,100
2018-05-24T06:43:30.266Z,125
2018-05-24T06:44:02.358Z,130
2018-05-24T06:44:34.436Z,140
2018-05-24T06:45:06.539Z,145
2018-05-24T06:45:40.405Z,150
2018-05-24T06:46:12.681Z,150
2018-05-24T06:46:44.810Z,155
2018-05-24T06:47:16.903Z,155
2018-05-24T06:47:48.998Z,155
2018-05-24T06:48:21.108Z,155
2018-05-24T06:48:53.181Z,155
2018-05-24T06:49:25.280Z,155
2018-05-24T06:49:57.381Z,140
2018-05-24T06:51:48.772Z,150
2018-05-24T06:52:22.923Z,150
2018-05-24T06:52:54.995Z,155
2018-05-24T06:53:27.086Z,155
2018-05-24T06:53:59.164Z,155
2018-05-24T06:54:31.270Z,155
2018-05-24T06:55:03.361Z,155
2018-05-24T06:55:35.452Z,150
2018-05-24T06:56:07.543Z,150
2018-05-24T06:56:39.729Z,150
2018-05-24T06:57:11.824Z,150
2018-05-24T06:57:43.980Z,150
2018-05-24T06:58:16.088Z,150
2018-05-24T06:58:48.165Z,150
2018-05-24T06:59:20.261Z,155
2018-05-24T06:59:52.395Z,150
2018-05-24T07:01:43.870Z,155
2018-05-24T07:02:16.007Z,155
2018-05-24T07:04:08.069Z,145
2018-05-24T07:04:40.264Z,115
2018-05-24T07:05:14.859Z,105
2018-05-24T07:05:49.729Z,100
2018-05-24T07:06:25.741Z,80
2018-05-24T07:08:18.519Z,110
2018-05-24T07:08:51.932Z,110
2018-05-24T07:09:26.762Z,100
2018-05-24T07:10:00.841Z,90
2018-05-24T07:10:32.689Z,110
2018-05-24T07:11:04.828Z,100
2018-05-24T07:11:36.862Z,145
2018-05-24T07:12:08.972Z,160
2018-05-24T07:12:41.068Z,165
2018-05-24T07:13:13.183Z,135
2018-05-24T07:13:45.262Z,140
2018-05-24T07:14:17.330Z,135
2018-05-24T07:14:49.363Z,140
2018-05-24T07:15:21.449Z,150
2018-05-24T07:15:53.549Z,150
2018-05-24T07:17:44.887Z,130
2018-05-24T07:18:16.992Z,105
2018-05-24T07:18:49.086Z,85
2018-05-24T07:19:21.164Z,80
2018-05-24T07:21:12.724Z,75
2018-05-24T07:21:44.821Z,80
2018-05-24T07:22:16.908Z,80
2018-05-24T07:24:08.393Z,80
2018-05-24T07:25:59.907Z,80
2018-05-24T07:26:31.997Z,85
2018-05-24T07:27:04.085Z,85
2018-05-24T07:27:36.149Z,85
2018-05-24T07:28:08.230Z,90
2018-05-24T07:28:40.331Z,90
2018-05-24T07:30:32.063Z,95
2018-05-24T07:32:23.573Z,100
2018-05-24T07:32:55.665Z,100
2018-05-24T07:33:27.751Z,105
2018-05-24T07:35:19.483Z,120
2018-05-24T07:35:51.535Z,110
2018-05-24T07:36:23.647Z,125
2018-05-24T07:38:15.390Z,125
2018-05-24T07:38:47.493Z,90
2018-05-24T07:39:19.592Z,110
2018-05-24T07:41:11.320Z,100
2018-05-24T07:41:43.407Z,100
2018-05-24T07:42:15.478Z,120
2018-05-24T07:42:47.571Z,90
2018-05-24T07:43:19.685Z,90
2018-05-24T07:45:11.130Z,90
2018-05-24T07:45:43.156Z,90
2018-05-24T07:48:53.976Z,95
2018-05-24T07:49:26.068Z,110
2018-05-24T07:49:58.144Z,105
2018-05-24T07:51:49.814Z,95
2018-05-24T07:52:21.926Z,95
2018-05-24T07:52:54.019Z,95
2018-05-24T07:53:26.116Z,100
2018-05-24T07:53:58.215Z,100
2018-05-24T07:54:30.316Z,100
2018-05-24T07:55:02.404Z,105
2018-05-24T07:55:34.493Z,95
2018-05-24T07:56:06.600Z,90
2018-05-24T07:56:38.692Z,90
2018-05-24T07:57:10.790Z,90
2018-05-24T07:57:42.913Z,90
2018-05-24T07:58:14.994Z,90
2018-05-24T07:58:47.094Z,90
2018-05-24T07:59:19.204Z,90
2018-05-24T07:59:51.313Z,95
2018-05-24T08:01:43.050Z,100
2018-05-24T08:03:34.577Z,100
2018-05-24T08:04:06.665Z,95
2018-05-24T08:04:38.756Z,95
2018-05-24T08:05:11.548Z,110
2018-05-24T08:05:43.647Z,100
2018-05-24T08:06:15.759Z,105
2018-05-24T08:06:47.851Z,95
2018-05-24T08:07:20.503Z,95
2018-05-24T08:07:54.412Z,95
2018-05-24T08:08:26.427Z,90
2018-05-24T08:08:58.531Z,90
2018-05-24T08:09:30.604Z,90
2018-05-24T08:10:02.755Z,90
2018-05-24T08:10:34.865Z,95
2018-05-24T08:11:06.970Z,100
2018-05-24T08:11:39.069Z,95
2018-05-24T08:12:11.162Z,100
2018-05-24T08:12:43.259Z,95
2018-05-24T08:13:15.351Z,100
2018-05-24T08:15:07.047Z,105
2018-05-24T08:15:39.160Z,145
2018-05-24T08:18:50.093Z,170
2018-05-24T08:19:22.240Z,185
2018-05-24T08:19:54.381Z,185
2018-05-24T08:20:26.493Z,180
2018-05-24T08:20:58.550Z,175
2018-05-24T08:21:30.665Z,170
2018-05-24T08:22:08.860Z,170
2018-05-24T08:22:41.352Z,165
2018-05-24T08:23:13.493Z,165
2018-05-24T08:23:45.573Z,165
2018-05-24T08:24:18.143Z,155
2018-05-24T08:24:50.243Z,165
2018-05-24T08:25:22.340Z,160
2018-05-24T08:25:54.431Z,160
2018-05-24T08:26:26.533Z,160
2018-05-24T08:26:58.662Z,155
2018-05-24T08:27:30.733Z,155
2018-05-24T08:28:02.796Z,150
2018-05-24T08:28:34.890Z,135
2018-05-24T08:29:07.001Z,90
2018-05-24T08:29:39.107Z,85
2018-05-24T08:30:11.177Z,80
2018-05-24T08:32:02.599Z,85
2018-05-24T08:32:34.698Z,120
2018-05-24T08:33:08.836Z,105
2018-05-24T08:33:43.984Z,90
2018-05-24T08:34:17.955Z,95
2018-05-24T08:34:53.775Z,115
2018-05-24T08:36:46.451Z,90
2018-05-24T08:37:21.359Z,95
2018-05-24T08:37:56.782Z,90
2018-05-24T08:38:30.498Z,90
2018-05-24T08:39:02.579Z,95
2018-05-24T08:39:34.667Z,120
2018-05-24T08:40:06.748Z,95
2018-05-24T08:40:38.921Z,90
2018-05-24T08:41:10.951Z,90
2018-05-24T08:41:43.108Z,90
2018-05-24T08:42:15.148Z,90
2018-05-24T08:44:06.524Z,95
2018-05-24T08:44:38.629Z,95
2018-05-24T08:46:30.118Z,95
2018-05-24T08:47:02.225Z,95
2018-05-24T08:47:34.280Z,100
2018-05-24T08:48:06.374Z,115
2018-05-24T08:49:57.891Z,105
2018-05-24T08:50:29.937Z,110
2018-05-24T08:51:02.019Z,110
2018-05-24T08:51:35.428Z,115
2018-05-24T08:53:27.077Z,125
2018-05-24T08:53:59.263Z,125
2018-05-24T08:55:50.882Z,145
2018-05-24T08:56:25.220Z,135
2018-05-24T08:58:16.856Z,140
2018-05-24T08:58:48.940Z,135
2018-05-24T08:59:21.024Z,135
2018-05-24T09:01:12.538Z,135
2018-05-24T09:03:03.947Z,125
2018-05-24T09:04:55.381Z,135
2018-05-24T09:05:27.480Z,135
2018-05-24T09:05:59.604Z,140
2018-05-24T09:07:51.387Z,185
2018-05-24T09:08:24.462Z,190
2018-05-24T09:08:56.634Z,195
2018-05-24T09:09:28.672Z,195
2018-05-24T09:10:00.968Z,190
2018-05-24T09:10:33.043Z,185
2018-05-24T09:11:05.141Z,205
2018-05-24T09:11:37.196Z,180
2018-05-24T09:12:09.307Z,170
2018-05-24T09:12:43.324Z,175
2018-05-24T09:13:18.521Z,170
2018-05-24T09:15:13.997Z,200
2018-05-24T09:15:49.487Z,200
2018-05-24T09:16:25.376Z,200
2018-05-24T09:18:18.859Z,200
2018-05-24T09:18:54.626Z,220
2018-05-24T09:22:07.142Z,165
2018-05-24T09:22:41.204Z,165
2018-05-24T09:23:14.235Z,165
2018-05-24T09:23:47.817Z,165
2018-05-24T09:24:22.877Z,170
2018-05-24T09:26:17.670Z,190
2018-05-24T09:26:52.957Z,190
2018-05-24T09:27:26.427Z,190
2018-05-24T09:28:03.262Z,190
2018-05-24T09:28:39.002Z,190
2018-05-24T09:29:16.504Z,190
2018-05-24T09:29:56.835Z,185
2018-05-24T09:31:52.633Z,185
2018-05-24T09:32:26.937Z,185
2018-05-24T09:33:00.428Z,185
2018-05-24T09:34:54.585Z,185
2018-05-24T09:35:28.447Z,185
2018-05-24T09:37:19.833Z,185
2018-05-24T09:37:51.911Z,185
2018-05-24T09:38:23.940Z,185
2018-05-24T09:38:55.959Z,185
2018-05-24T09:39:27.971Z,180
2018-05-24T09:40:00.014Z,175
2018-05-24T09:40:32.063Z,175
2018-05-24T09:41:04.227Z,170
2018-05-24T09:41:36.301Z,165
2018-05-24T09:42:08.618Z,155
